sensor_id;sensor_type;location;lat;lon;timestamp;temperature;humidity
56428;DHT22;42331;53.578;9.760;2022-08-25T00:00:26;20.90;99.90
56428;DHT22;42331;53.578;9.760;2022-08-25T00:02:57;20.80;99.90
56428;DHT22;42331;53.578;9.760;2022-08-25T00:05:28;20.90;99.90
56428;DHT22;42331;53.578;9.760;2022-08-25T00:08:01;20.80;99.90
56428;DHT22;42331;53.578;9.760;2022-08-25T00:10:34;20.80;99.90
56428;DHT22;42331;53.578;9.760;2022-08-25T00:13:05;20.90;99.90
56428;DHT22;42331;53.578;9.760;2022-08-25T00:15:36;20.80;99.90
56428;DHT22;42331;53.578;9.760;2022-08-25T00:18:07;20.80;99.90
56428;DHT22;42331;53.578;9.760;2022-08-25T00:20:38;20.70;99.90
56428;DHT22;42331;53.578;9.760;2022-08-25T00:23:09;20.70;99.90
56428;DHT22;42331;53.578;9.760;2022-08-25T00:25:40;20.70;99.90
56428;DHT22;42331;53.578;9.760;2022-08-25T00:28:11;20.80;99.90
56428;DHT22;42331;53.578;9.760;2022-08-25T00:30:43;20.80;99.90
56428;DHT22;42331;53.578;9.760;2022-08-25T00:33:14;20.80;99.90
56428;DHT22;42331;53.578;9.760;2022-08-25T00:35:45;20.80;99.90
56428;DHT22;42331;53.578;9.760;2022-08-25T00:38:16;20.70;99.90
56428;DHT22;42331;53.578;9.760;2022-08-25T00:40:47;20.70;99.90
56428;DHT22;42331;53.578;9.760;2022-08-25T00:43:57;20.70;99.90
56428;DHT22;42331;53.578;9.760;2022-08-25T00:46:35;20.60;99.90
56428;DHT22;42331;53.578;9.760;2022-08-25T00:49:19;20.60;99.90
56428;DHT22;42331;53.578;9.760;2022-08-25T00:52:05;20.50;99.90
56428;DHT22;42331;53.578;9.760;2022-08-25T00:54:41;20.50;99.90
56428;DHT22;42331;53.578;9.760;2022-08-25T00:57:20;20.50;99.90
56428;DHT22;42331;53.578;9.760;2022-08-25T00:59:52;20.50;99.90
56428;DHT22;42331;53.578;9.760;2022-08-25T01:02:23;20.50;99.90
56428;DHT22;42331;53.578;9.760;2022-08-25T01:04:54;20.40;99.90
56428;DHT22;42331;53.578;9.760;2022-08-25T01:07:25;20.40;99.90
56428;DHT22;42331;53.578;9.760;2022-08-25T01:09:56;20.40;99.90
56428;DHT22;42331;53.578;9.760;2022-08-25T01:12:27;20.40;99.90
56428;DHT22;42331;53.578;9.760;2022-08-25T01:14:58;20.40;99.90
56428;DHT22;42331;53.578;9.760;2022-08-25T01:17:48;20.30;99.90
56428;DHT22;42331;53.578;9.760;2022-08-25T01:20:23;20.30;99.90
56428;DHT22;42331;53.578;9.760;2022-08-25T01:22:55;20.20;99.90
56428;DHT22;42331;53.578;9.760;2022-08-25T01:28:05;20.20;99.90
56428;DHT22;42331;53.578;9.760;2022-08-25T01:30:37;20.20;99.90
56428;DHT22;42331;53.578;9.760;2022-08-25T01:33:09;20.10;99.90
56428;DHT22;42331;53.578;9.760;2022-08-25T01:35:40;20.10;99.90
56428;DHT22;42331;53.578;9.760;2022-08-25T01:38:11;20.10;99.90
56428;DHT22;42331;53.578;9.760;2022-08-25T01:40:42;20.00;99.90
56428;DHT22;42331;53.578;9.760;2022-08-25T01:43:30;20.00;99.90
56428;DHT22;42331;53.578;9.760;2022-08-25T01:46:05;20.00;99.90
56428;DHT22;42331;53.578;9.760;2022-08-25T01:48:36;20.00;99.90
56428;DHT22;42331;53.578;9.760;2022-08-25T01:51:06;20.00;99.90
56428;DHT22;42331;53.578;9.760;2022-08-25T01:53:37;19.90;99.90
56428;DHT22;42331;53.578;9.760;2022-08-25T01:56:13;19.90;99.90
56428;DHT22;42331;53.578;9.760;2022-08-25T01:58:47;19.90;99.90
56428;DHT22;42331;53.578;9.760;2022-08-25T02:01:23;19.90;99.90
56428;DHT22;42331;53.578;9.760;2022-08-25T02:03:55;19.80;99.90
56428;DHT22;42331;53.578;9.760;2022-08-25T02:06:32;19.80;99.90
56428;DHT22;42331;53.578;9.760;2022-08-25T02:09:09;19.70;99.90
56428;DHT22;42331;53.578;9.760;2022-08-25T02:11:42;19.70;99.90
56428;DHT22;42331;53.578;9.760;2022-08-25T02:14:15;19.70;99.90
56428;DHT22;42331;53.578;9.760;2022-08-25T02:16:48;19.70;99.90
56428;DHT22;42331;53.578;9.760;2022-08-25T02:19:22;19.70;99.90
56428;DHT22;42331;53.578;9.760;2022-08-25T02:21:53;19.70;99.90
56428;DHT22;42331;53.578;9.760;2022-08-25T02:24:25;19.70;99.90
56428;DHT22;42331;53.578;9.760;2022-08-25T02:26:56;19.70;99.90
56428;DHT22;42331;53.578;9.760;2022-08-25T02:29:27;19.70;99.90
56428;DHT22;42331;53.578;9.760;2022-08-25T02:31:58;19.60;99.90
56428;DHT22;42331;53.578;9.760;2022-08-25T02:34:29;19.60;99.90
56428;DHT22;42331;53.578;9.760;2022-08-25T02:37:00;19.60;99.90
56428;DHT22;42331;53.578;9.760;2022-08-25T02:39:31;19.60;99.90
56428;DHT22;42331;53.578;9.760;2022-08-25T02:42:02;19.50;99.90
56428;DHT22;42331;53.578;9.760;2022-08-25T02:44:33;19.50;99.90
56428;DHT22;42331;53.578;9.760;2022-08-25T02:47:04;19.50;99.90
56428;DHT22;42331;53.578;9.760;2022-08-25T02:49:34;19.50;99.90
56428;DHT22;42331;53.578;9.760;2022-08-25T02:52:05;19.50;99.90
56428;DHT22;42331;53.578;9.760;2022-08-25T02:54:36;19.50;99.90
56428;DHT22;42331;53.578;9.760;2022-08-25T02:57:07;19.40;99.90
56428;DHT22;42331;53.578;9.760;2022-08-25T02:59:41;19.40;99.90
56428;DHT22;42331;53.578;9.760;2022-08-25T03:02:11;19.40;99.90
56428;DHT22;42331;53.578;9.760;2022-08-25T03:04:43;19.40;99.90
56428;DHT22;42331;53.578;9.760;2022-08-25T03:07:13;19.30;99.90
56428;DHT22;42331;53.578;9.760;2022-08-25T03:09:45;19.30;99.90
56428;DHT22;42331;53.578;9.760;2022-08-25T03:12:16;19.20;99.90
56428;DHT22;42331;53.578;9.760;2022-08-25T03:14:47;19.20;99.90
56428;DHT22;42331;53.578;9.760;2022-08-25T03:17:18;19.10;99.90
56428;DHT22;42331;53.578;9.760;2022-08-25T03:19:49;19.10;99.90
56428;DHT22;42331;53.578;9.760;2022-08-25T03:22:19;19.10;99.90
56428;DHT22;42331;53.578;9.760;2022-08-25T03:24:50;19.10;99.90
56428;DHT22;42331;53.578;9.760;2022-08-25T03:27:21;19.00;99.90
56428;DHT22;42331;53.578;9.760;2022-08-25T03:29:52;19.00;99.90
56428;DHT22;42331;53.578;9.760;2022-08-25T03:32:25;19.00;99.90
56428;DHT22;42331;53.578;9.760;2022-08-25T03:34:55;18.90;99.90
56428;DHT22;42331;53.578;9.760;2022-08-25T03:37:26;18.90;99.90
56428;DHT22;42331;53.578;9.760;2022-08-25T03:39:57;18.90;99.90
56428;DHT22;42331;53.578;9.760;2022-08-25T03:42:28;18.80;99.90
56428;DHT22;42331;53.578;9.760;2022-08-25T03:45:02;18.80;99.90
56428;DHT22;42331;53.578;9.760;2022-08-25T03:47:33;18.70;99.90
56428;DHT22;42331;53.578;9.760;2022-08-25T03:50:05;18.70;99.90
56428;DHT22;42331;53.578;9.760;2022-08-25T03:52:37;18.70;99.90
56428;DHT22;42331;53.578;9.760;2022-08-25T03:55:10;18.70;99.90
56428;DHT22;42331;53.578;9.760;2022-08-25T03:57:42;18.60;99.90
56428;DHT22;42331;53.578;9.760;2022-08-25T04:00:14;18.60;99.90
56428;DHT22;42331;53.578;9.760;2022-08-25T04:02:45;18.60;99.90
56428;DHT22;42331;53.578;9.760;2022-08-25T04:05:16;18.60;99.90
56428;DHT22;42331;53.578;9.760;2022-08-25T04:07:47;18.60;99.90
56428;DHT22;42331;53.578;9.760;2022-08-25T04:10:18;18.60;99.90
56428;DHT22;42331;53.578;9.760;2022-08-25T04:12:49;18.50;99.90
56428;DHT22;42331;53.578;9.760;2022-08-25T04:15:20;18.50;99.90
56428;DHT22;42331;53.578;9.760;2022-08-25T04:17:51;18.50;99.90
56428;DHT22;42331;53.578;9.760;2022-08-25T04:20:21;18.50;99.90
56428;DHT22;42331;53.578;9.760;2022-08-25T04:22:52;18.50;99.90
56428;DHT22;42331;53.578;9.760;2022-08-25T04:25:24;18.50;99.90
56428;DHT22;42331;53.578;9.760;2022-08-25T04:27:55;18.50;99.90
56428;DHT22;42331;53.578;9.760;2022-08-25T04:30:26;18.50;99.90
56428;DHT22;42331;53.578;9.760;2022-08-25T04:32:57;18.40;99.90
56428;DHT22;42331;53.578;9.760;2022-08-25T04:35:28;18.40;99.90
56428;DHT22;42331;53.578;9.760;2022-08-25T04:37:58;18.40;99.90
56428;DHT22;42331;53.578;9.760;2022-08-25T04:40:29;18.30;99.90
56428;DHT22;42331;53.578;9.760;2022-08-25T04:43:00;18.40;99.90
56428;DHT22;42331;53.578;9.760;2022-08-25T04:45:31;18.40;99.90
56428;DHT22;42331;53.578;9.760;2022-08-25T04:48:05;18.40;99.90
56428;DHT22;42331;53.578;9.760;2022-08-25T04:50:38;18.40;99.90
56428;DHT22;42331;53.578;9.760;2022-08-25T04:53:10;18.40;99.90
56428;DHT22;42331;53.578;9.760;2022-08-25T04:55:42;18.40;99.90
56428;DHT22;42331;53.578;9.760;2022-08-25T04:58:14;18.40;99.90
56428;DHT22;42331;53.578;9.760;2022-08-25T05:00:45;18.40;99.90
56428;DHT22;42331;53.578;9.760;2022-08-25T05:03:16;18.40;99.90
56428;DHT22;42331;53.578;9.760;2022-08-25T05:05:47;18.40;99.90
56428;DHT22;42331;53.578;9.760;2022-08-25T05:08:17;18.50;99.90
56428;DHT22;42331;53.578;9.760;2022-08-25T05:10:48;18.50;99.90
56428;DHT22;42331;53.578;9.760;2022-08-25T05:13:20;18.50;99.90
56428;DHT22;42331;53.578;9.760;2022-08-25T05:15:56;18.60;99.90
56428;DHT22;42331;53.578;9.760;2022-08-25T05:18:29;18.60;99.90
56428;DHT22;42331;53.578;9.760;2022-08-25T05:21:06;18.60;99.90
56428;DHT22;42331;53.578;9.760;2022-08-25T05:23:39;18.70;99.90
56428;DHT22;42331;53.578;9.760;2022-08-25T05:26:13;18.80;99.90
56428;DHT22;42331;53.578;9.760;2022-08-25T05:28:44;18.80;99.90
56428;DHT22;42331;53.578;9.760;2022-08-25T05:31:16;18.80;99.90
56428;DHT22;42331;53.578;9.760;2022-08-25T05:33:47;18.80;99.90
56428;DHT22;42331;53.578;9.760;2022-08-25T05:36:19;18.90;99.90
56428;DHT22;42331;53.578;9.760;2022-08-25T05:38:50;18.90;99.90
56428;DHT22;42331;53.578;9.760;2022-08-25T05:41:27;19.00;99.90
56428;DHT22;42331;53.578;9.760;2022-08-25T05:43:58;19.00;99.90
56428;DHT22;42331;53.578;9.760;2022-08-25T05:46:29;19.10;99.90
56428;DHT22;42331;53.578;9.760;2022-08-25T05:49:00;19.20;99.90
56428;DHT22;42331;53.578;9.760;2022-08-25T05:51:31;19.20;99.90
56428;DHT22;42331;53.578;9.760;2022-08-25T05:54:02;19.30;99.90
56428;DHT22;42331;53.578;9.760;2022-08-25T05:56:33;19.40;99.90
56428;DHT22;42331;53.578;9.760;2022-08-25T05:59:04;19.40;99.90
56428;DHT22;42331;53.578;9.760;2022-08-25T06:01:35;19.50;99.90
56428;DHT22;42331;53.578;9.760;2022-08-25T06:04:24;19.60;99.90
56428;DHT22;42331;53.578;9.760;2022-08-25T06:06:55;19.60;99.90
56428;DHT22;42331;53.578;9.760;2022-08-25T06:09:26;19.70;99.90
56428;DHT22;42331;53.578;9.760;2022-08-25T06:11:57;19.80;99.90
56428;DHT22;42331;53.578;9.760;2022-08-25T06:14:28;19.80;99.90
56428;DHT22;42331;53.578;9.760;2022-08-25T06:16:59;19.90;99.90
56428;DHT22;42331;53.578;9.760;2022-08-25T06:19:30;20.00;99.90
56428;DHT22;42331;53.578;9.760;2022-08-25T06:22:01;20.10;99.90
56428;DHT22;42331;53.578;9.760;2022-08-25T06:24:32;20.20;99.90
56428;DHT22;42331;53.578;9.760;2022-08-25T06:27:03;20.30;99.90
56428;DHT22;42331;53.578;9.760;2022-08-25T06:29:34;20.40;99.90
56428;DHT22;42331;53.578;9.760;2022-08-25T06:32:05;20.50;99.90
56428;DHT22;42331;53.578;9.760;2022-08-25T06:34:36;20.60;99.90
56428;DHT22;42331;53.578;9.760;2022-08-25T06:37:07;20.60;99.90
56428;DHT22;42331;53.578;9.760;2022-08-25T06:39:38;20.70;99.90
56428;DHT22;42331;53.578;9.760;2022-08-25T06:42:08;20.70;99.90
56428;DHT22;42331;53.578;9.760;2022-08-25T06:44:39;20.80;99.90
56428;DHT22;42331;53.578;9.760;2022-08-25T06:47:10;20.90;99.90
56428;DHT22;42331;53.578;9.760;2022-08-25T06:49:42;21.00;99.90
56428;DHT22;42331;53.578;9.760;2022-08-25T06:52:13;21.00;99.90
56428;DHT22;42331;53.578;9.760;2022-08-25T06:54:44;21.00;99.90
56428;DHT22;42331;53.578;9.760;2022-08-25T06:57:15;21.10;99.90
56428;DHT22;42331;53.578;9.760;2022-08-25T06:59:46;21.20;99.90
56428;DHT22;42331;53.578;9.760;2022-08-25T07:02:17;21.30;99.90
56428;DHT22;42331;53.578;9.760;2022-08-25T07:04:48;21.30;99.90
56428;DHT22;42331;53.578;9.760;2022-08-25T07:07:19;21.30;99.90
56428;DHT22;42331;53.578;9.760;2022-08-25T07:09:51;21.20;99.90
56428;DHT22;42331;53.578;9.760;2022-08-25T07:12:21;21.20;99.90
56428;DHT22;42331;53.578;9.760;2022-08-25T07:14:53;21.30;99.90
56428;DHT22;42331;53.578;9.760;2022-08-25T07:17:24;21.30;99.90
56428;DHT22;42331;53.578;9.760;2022-08-25T07:19:56;21.40;99.90
56428;DHT22;42331;53.578;9.760;2022-08-25T07:22:27;21.40;99.90
56428;DHT22;42331;53.578;9.760;2022-08-25T07:24:58;21.40;99.90
56428;DHT22;42331;53.578;9.760;2022-08-25T07:27:28;21.40;99.90
56428;DHT22;42331;53.578;9.760;2022-08-25T07:29:59;21.20;99.90
56428;DHT22;42331;53.578;9.760;2022-08-25T07:32:30;21.20;99.90
56428;DHT22;42331;53.578;9.760;2022-08-25T07:35:01;21.10;99.90
56428;DHT22;42331;53.578;9.760;2022-08-25T07:37:49;21.10;99.90
56428;DHT22;42331;53.578;9.760;2022-08-25T07:40:28;21.10;99.90
56428;DHT22;42331;53.578;9.760;2022-08-25T07:43:02;21.10;99.90
56428;DHT22;42331;53.578;9.760;2022-08-25T07:45:35;21.00;99.90
56428;DHT22;42331;53.578;9.760;2022-08-25T07:48:09;21.20;99.90
56428;DHT22;42331;53.578;9.760;2022-08-25T07:50:42;21.10;99.90
56428;DHT22;42331;53.578;9.760;2022-08-25T07:53:15;21.10;99.90
56428;DHT22;42331;53.578;9.760;2022-08-25T07:55:46;21.10;99.90
56428;DHT22;42331;53.578;9.760;2022-08-25T07:58:17;21.20;99.90
56428;DHT22;42331;53.578;9.760;2022-08-25T08:00:48;21.20;99.90
56428;DHT22;42331;53.578;9.760;2022-08-25T08:03:19;21.10;99.90
56428;DHT22;42331;53.578;9.760;2022-08-25T08:05:50;21.10;99.90
56428;DHT22;42331;53.578;9.760;2022-08-25T08:08:21;21.20;99.90
56428;DHT22;42331;53.578;9.760;2022-08-25T08:10:52;21.30;99.90
56428;DHT22;42331;53.578;9.760;2022-08-25T08:13:23;21.30;99.90
56428;DHT22;42331;53.578;9.760;2022-08-25T08:15:56;21.50;99.90
56428;DHT22;42331;53.578;9.760;2022-08-25T08:18:26;21.40;99.90
56428;DHT22;42331;53.578;9.760;2022-08-25T08:20:57;21.50;99.90
56428;DHT22;42331;53.578;9.760;2022-08-25T08:23:34;21.60;99.90
56428;DHT22;42331;53.578;9.760;2022-08-25T08:26:05;21.70;99.90
56428;DHT22;42331;53.578;9.760;2022-08-25T08:28:36;21.80;99.90
56428;DHT22;42331;53.578;9.760;2022-08-25T08:31:07;21.80;99.90
56428;DHT22;42331;53.578;9.760;2022-08-25T08:33:38;21.90;99.90
56428;DHT22;42331;53.578;9.760;2022-08-25T08:36:12;22.00;99.90
56428;DHT22;42331;53.578;9.760;2022-08-25T08:38:44;21.90;99.90
56428;DHT22;42331;53.578;9.760;2022-08-25T08:47:21;21.90;99.90
56428;DHT22;42331;53.578;9.760;2022-08-25T08:53:13;21.90;99.90
56428;DHT22;42331;53.578;9.760;2022-08-25T08:56:00;22.10;99.90
56428;DHT22;42331;53.578;9.760;2022-08-25T08:58:46;22.30;99.90
56428;DHT22;42331;53.578;9.760;2022-08-25T09:01:28;22.60;99.90
56428;DHT22;42331;53.578;9.760;2022-08-25T09:04:20;22.80;99.90
56428;DHT22;42331;53.578;9.760;2022-08-25T09:06:52;22.40;99.90
56428;DHT22;42331;53.578;9.760;2022-08-25T09:09:25;22.50;99.90
56428;DHT22;42331;53.578;9.760;2022-08-25T09:12:10;22.70;99.90
56428;DHT22;42331;53.578;9.760;2022-08-25T09:20:58;22.90;99.90
56428;DHT22;42331;53.578;9.760;2022-08-25T09:29:06;23.40;99.90
56428;DHT22;42331;53.578;9.760;2022-08-25T09:31:41;23.40;99.90
56428;DHT22;42331;53.578;9.760;2022-08-25T09:34:21;23.40;99.90
56428;DHT22;42331;53.578;9.760;2022-08-25T09:36:52;23.20;99.90
56428;DHT22;42331;53.578;9.760;2022-08-25T09:39:23;23.10;99.90
56428;DHT22;42331;53.578;9.760;2022-08-25T09:41:58;23.20;99.90
56428;DHT22;42331;53.578;9.760;2022-08-25T09:44:42;23.40;99.90
56428;DHT22;42331;53.578;9.760;2022-08-25T09:47:23;23.40;99.90
56428;DHT22;42331;53.578;9.760;2022-08-25T09:49:59;23.50;99.90
56428;DHT22;42331;53.578;9.760;2022-08-25T09:57:49;23.70;99.90
56428;DHT22;42331;53.578;9.760;2022-08-25T10:00:33;23.60;99.90
56428;DHT22;42331;53.578;9.760;2022-08-25T10:03:10;23.70;99.90
56428;DHT22;42331;53.578;9.760;2022-08-25T10:11:07;24.40;99.90
56428;DHT22;42331;53.578;9.760;2022-08-25T10:13:48;24.30;99.90
56428;DHT22;42331;53.578;9.760;2022-08-25T10:16:26;24.30;99.90
56428;DHT22;42331;53.578;9.760;2022-08-25T10:19:26;24.50;99.90
56428;DHT22;42331;53.578;9.760;2022-08-25T10:22:22;24.90;99.90
56428;DHT22;42331;53.578;9.760;2022-08-25T10:25:05;25.80;99.90
56428;DHT22;42331;53.578;9.760;2022-08-25T10:30:50;27.60;99.90
56428;DHT22;42331;53.578;9.760;2022-08-25T10:33:58;28.20;99.90
56428;DHT22;42331;53.578;9.760;2022-08-25T10:45:22;29.90;99.90
56428;DHT22;42331;53.578;9.760;2022-08-25T10:48:42;29.60;99.90
56428;DHT22;42331;53.578;9.760;2022-08-25T10:51:43;29.60;99.90
56428;DHT22;42331;53.578;9.760;2022-08-25T11:00:23;28.60;99.90
56428;DHT22;42331;53.578;9.760;2022-08-25T11:06:06;29.50;99.90
56428;DHT22;42331;53.578;9.760;2022-08-25T11:08:53;29.90;99.90
56428;DHT22;42331;53.578;9.760;2022-08-25T11:11:31;30.20;99.90
56428;DHT22;42331;53.578;9.760;2022-08-25T11:14:18;29.70;99.90
56428;DHT22;42331;53.578;9.760;2022-08-25T11:17:09;30.10;99.90
56428;DHT22;42331;53.578;9.760;2022-08-25T11:19:52;30.70;99.90
56428;DHT22;42331;53.578;9.760;2022-08-25T11:22:40;28.90;99.90
56428;DHT22;42331;53.578;9.760;2022-08-25T11:25:18;27.70;99.90
56428;DHT22;42331;53.578;9.760;2022-08-25T11:28:13;27.10;99.90
56428;DHT22;42331;53.578;9.760;2022-08-25T11:30:50;26.80;99.90
56428;DHT22;42331;53.578;9.760;2022-08-25T11:33:22;26.60;99.90
56428;DHT22;42331;53.578;9.760;2022-08-25T11:36:04;26.50;99.90
56428;DHT22;42331;53.578;9.760;2022-08-25T11:57:46;26.40;99.90
56428;DHT22;42331;53.578;9.760;2022-08-25T12:00:37;26.30;99.90
56428;DHT22;42331;53.578;9.760;2022-08-25T12:11:55;26.80;99.90
56428;DHT22;42331;53.578;9.760;2022-08-25T12:14:35;27.00;99.90
56428;DHT22;42331;53.578;9.760;2022-08-25T12:17:35;27.10;99.90
56428;DHT22;42331;53.578;9.760;2022-08-25T12:20:07;27.10;99.90
56428;DHT22;42331;53.578;9.760;2022-08-25T12:22:40;27.20;99.90
56428;DHT22;42331;53.578;9.760;2022-08-25T12:25:29;27.20;99.90
56428;DHT22;42331;53.578;9.760;2022-08-25T12:28:51;27.20;99.90
56428;DHT22;42331;53.578;9.760;2022-08-25T12:31:28;27.00;99.90
56428;DHT22;42331;53.578;9.760;2022-08-25T12:39:44;27.10;99.90
56428;DHT22;42331;53.578;9.760;2022-08-25T12:42:42;27.20;99.90
56428;DHT22;42331;53.578;9.760;2022-08-25T12:51:39;27.20;99.90
56428;DHT22;42331;53.578;9.760;2022-08-25T12:56:46;27.30;99.90
56428;DHT22;42331;53.578;9.760;2022-08-25T13:10:53;27.10;99.90
56428;DHT22;42331;53.578;9.760;2022-08-25T13:16:21;27.10;99.90
56428;DHT22;42331;53.578;9.760;2022-08-25T13:18:52;27.20;99.90
56428;DHT22;42331;53.578;9.760;2022-08-25T13:21:41;27.20;99.90
56428;DHT22;42331;53.578;9.760;2022-08-25T13:24:26;27.10;99.90
56428;DHT22;42331;53.578;9.760;2022-08-25T13:27:06;27.10;99.90
56428;DHT22;42331;53.578;9.760;2022-08-25T13:29:50;26.90;99.90
56428;DHT22;42331;53.578;9.760;2022-08-25T13:32:34;27.00;99.90
56428;DHT22;42331;53.578;9.760;2022-08-25T13:35:21;27.00;99.90
56428;DHT22;42331;53.578;9.760;2022-08-25T13:37:52;27.00;99.90
